sensor_id;sensor_type;location;lat;lon;timestamp;temperature;humidity
53286;DHT22;39171;45.550;12.074;2023-05-16T00:05:21;18.30;71.40
53286;DHT22;39171;45.550;12.074;2023-05-16T00:11:22;18.30;71.60
53286;DHT22;39171;45.550;12.074;2023-05-16T00:17:24;18.30;71.90
53286;DHT22;39171;45.550;12.074;2023-05-16T00:23:29;18.30;71.80
53286;DHT22;39171;45.550;12.074;2023-05-16T00:29:30;18.30;71.90
53286;DHT22;39171;45.550;12.074;2023-05-16T00:35:32;18.30;71.90
53286;DHT22;39171;45.550;12.074;2023-05-16T00:41:34;18.30;72.00
53286;DHT22;39171;45.550;12.074;2023-05-16T00:47:35;18.30;72.10
53286;DHT22;39171;45.550;12.074;2023-05-16T00:53:37;18.30;72.70
53286;DHT22;39171;45.550;12.074;2023-05-16T00:59:39;18.30;72.60
53286;DHT22;39171;45.550;12.074;2023-05-16T01:05:45;18.20;72.60
53286;DHT22;39171;45.550;12.074;2023-05-16T01:11:49;18.30;72.80
53286;DHT22;39171;45.550;12.074;2023-05-16T01:24:13;18.30;73.10
53286;DHT22;39171;45.550;12.074;2023-05-16T01:30:18;18.20;73.20
53286;DHT22;39171;45.550;12.074;2023-05-16T01:36:23;18.20;73.30
53286;DHT22;39171;45.550;12.074;2023-05-16T01:42:27;18.20;73.40
53286;DHT22;39171;45.550;12.074;2023-05-16T01:48:42;18.30;73.40
53286;DHT22;39171;45.550;12.074;2023-05-16T01:54:47;18.20;73.60
53286;DHT22;39171;45.550;12.074;2023-05-16T02:00:51;18.20;73.50
53286;DHT22;39171;45.550;12.074;2023-05-16T02:06:52;18.20;73.60
53286;DHT22;39171;45.550;12.074;2023-05-16T02:12:54;18.20;73.70
53286;DHT22;39171;45.550;12.074;2023-05-16T02:18:55;18.20;73.80
53286;DHT22;39171;45.550;12.074;2023-05-16T02:24:57;18.30;74.00
53286;DHT22;39171;45.550;12.074;2023-05-16T02:30:59;18.20;73.80
53286;DHT22;39171;45.550;12.074;2023-05-16T02:37:00;18.20;74.10
53286;DHT22;39171;45.550;12.074;2023-05-16T02:43:02;18.20;74.00
53286;DHT22;39171;45.550;12.074;2023-05-16T02:49:03;18.20;74.40
53286;DHT22;39171;45.550;12.074;2023-05-16T02:55:05;18.20;74.80
53286;DHT22;39171;45.550;12.074;2023-05-16T03:01:08;18.20;75.00
53286;DHT22;39171;45.550;12.074;2023-05-16T03:07:09;18.20;75.10
53286;DHT22;39171;45.550;12.074;2023-05-16T03:13:11;18.20;75.40
53286;DHT22;39171;45.550;12.074;2023-05-16T03:19:12;18.20;75.60
53286;DHT22;39171;45.550;12.074;2023-05-16T03:25:14;18.20;75.70
53286;DHT22;39171;45.550;12.074;2023-05-16T03:31:16;18.20;76.00
53286;DHT22;39171;45.550;12.074;2023-05-16T03:37:17;18.20;76.10
53286;DHT22;39171;45.550;12.074;2023-05-16T03:43:18;18.20;76.10
53286;DHT22;39171;45.550;12.074;2023-05-16T03:49:24;18.20;76.20
53286;DHT22;39171;45.550;12.074;2023-05-16T03:55:26;18.20;76.40
53286;DHT22;39171;45.550;12.074;2023-05-16T04:01:28;18.20;76.50
53286;DHT22;39171;45.550;12.074;2023-05-16T04:07:29;18.20;76.60
53286;DHT22;39171;45.550;12.074;2023-05-16T04:13:31;18.20;76.60
53286;DHT22;39171;45.550;12.074;2023-05-16T04:19:32;18.10;77.00
53286;DHT22;39171;45.550;12.074;2023-05-16T04:25:33;18.10;76.90
53286;DHT22;39171;45.550;12.074;2023-05-16T04:31:35;18.20;77.00
53286;DHT22;39171;45.550;12.074;2023-05-16T04:37:37;18.20;77.00
53286;DHT22;39171;45.550;12.074;2023-05-16T04:43:38;18.20;77.10
53286;DHT22;39171;45.550;12.074;2023-05-16T04:49:40;18.20;77.20
53286;DHT22;39171;45.550;12.074;2023-05-16T04:55:41;18.20;77.20
53286;DHT22;39171;45.550;12.074;2023-05-16T05:01:43;18.10;77.30
53286;DHT22;39171;45.550;12.074;2023-05-16T05:07:44;18.10;77.20
53286;DHT22;39171;45.550;12.074;2023-05-16T05:13:45;18.10;77.30
53286;DHT22;39171;45.550;12.074;2023-05-16T05:19:47;18.10;77.40
53286;DHT22;39171;45.550;12.074;2023-05-16T05:25:49;18.10;77.60
53286;DHT22;39171;45.550;12.074;2023-05-16T05:31:50;18.10;77.60
53286;DHT22;39171;45.550;12.074;2023-05-16T05:37:52;18.10;77.50
53286;DHT22;39171;45.550;12.074;2023-05-16T05:43:53;18.20;77.70
53286;DHT22;39171;45.550;12.074;2023-05-16T05:49:54;18.10;77.60
53286;DHT22;39171;45.550;12.074;2023-05-16T05:55:56;18.10;77.50
53286;DHT22;39171;45.550;12.074;2023-05-16T06:01:57;18.10;77.70
53286;DHT22;39171;45.550;12.074;2023-05-16T06:07:58;18.10;77.60
53286;DHT22;39171;45.550;12.074;2023-05-16T06:14:00;18.10;77.80
53286;DHT22;39171;45.550;12.074;2023-05-16T06:20:01;18.10;78.00
53286;DHT22;39171;45.550;12.074;2023-05-16T06:26:03;18.10;77.70
53286;DHT22;39171;45.550;12.074;2023-05-16T06:32:05;18.10;77.70
53286;DHT22;39171;45.550;12.074;2023-05-16T06:38:06;18.10;78.10
53286;DHT22;39171;45.550;12.074;2023-05-16T06:44:08;18.00;78.20
53286;DHT22;39171;45.550;12.074;2023-05-16T06:50:09;18.00;78.40
53286;DHT22;39171;45.550;12.074;2023-05-16T06:56:11;18.00;78.40
53286;DHT22;39171;45.550;12.074;2023-05-16T07:02:12;18.00;78.70
53286;DHT22;39171;45.550;12.074;2023-05-16T07:08:14;18.00;78.80
53286;DHT22;39171;45.550;12.074;2023-05-16T07:14:15;18.00;78.80
53286;DHT22;39171;45.550;12.074;2023-05-16T07:20:17;18.00;78.80
53286;DHT22;39171;45.550;12.074;2023-05-16T07:26:18;18.00;79.20
53286;DHT22;39171;45.550;12.074;2023-05-16T07:32:22;18.00;79.00
53286;DHT22;39171;45.550;12.074;2023-05-16T07:38:26;18.00;79.10
53286;DHT22;39171;45.550;12.074;2023-05-16T07:44:27;18.00;78.90
53286;DHT22;39171;45.550;12.074;2023-05-16T07:50:29;18.00;79.00
53286;DHT22;39171;45.550;12.074;2023-05-16T07:56:30;18.00;79.20
53286;DHT22;39171;45.550;12.074;2023-05-16T08:02:33;18.00;79.20
53286;DHT22;39171;45.550;12.074;2023-05-16T08:08:34;18.00;79.50
53286;DHT22;39171;45.550;12.074;2023-05-16T08:14:36;18.00;79.50
53286;DHT22;39171;45.550;12.074;2023-05-16T08:20:37;18.00;79.40
53286;DHT22;39171;45.550;12.074;2023-05-16T08:26:39;18.00;79.40
53286;DHT22;39171;45.550;12.074;2023-05-16T08:32:40;18.00;79.70
53286;DHT22;39171;45.550;12.074;2023-05-16T08:38:42;18.00;79.60
53286;DHT22;39171;45.550;12.074;2023-05-16T08:44:43;18.00;79.60
53286;DHT22;39171;45.550;12.074;2023-05-16T08:50:45;18.00;79.30
53286;DHT22;39171;45.550;12.074;2023-05-16T08:56:47;18.00;79.30
53286;DHT22;39171;45.550;12.074;2023-05-16T09:02:50;18.00;79.30
53286;DHT22;39171;45.550;12.074;2023-05-16T09:08:53;18.00;78.90
53286;DHT22;39171;45.550;12.074;2023-05-16T09:14:54;18.10;78.80
53286;DHT22;39171;45.550;12.074;2023-05-16T09:20:59;18.10;78.90
53286;DHT22;39171;45.550;12.074;2023-05-16T09:27:07;18.10;78.80
53286;DHT22;39171;45.550;12.074;2023-05-16T09:33:09;18.10;78.70
53286;DHT22;39171;45.550;12.074;2023-05-16T09:39:14;18.10;78.70
53286;DHT22;39171;45.550;12.074;2023-05-16T09:45:16;18.10;78.70
53286;DHT22;39171;45.550;12.074;2023-05-16T09:51:21;18.20;78.60
53286;DHT22;39171;45.550;12.074;2023-05-16T09:57:22;18.20;78.50
53286;DHT22;39171;45.550;12.074;2023-05-16T10:03:25;18.20;78.70
53286;DHT22;39171;45.550;12.074;2023-05-16T10:09:27;18.10;78.40
53286;DHT22;39171;45.550;12.074;2023-05-16T10:15:29;18.10;78.40
53286;DHT22;39171;45.550;12.074;2023-05-16T10:21:34;18.10;78.60
53286;DHT22;39171;45.550;12.074;2023-05-16T10:27:38;18.10;78.70
53286;DHT22;39171;45.550;12.074;2023-05-16T10:33:44;18.10;78.60
53286;DHT22;39171;45.550;12.074;2023-05-16T10:39:46;18.10;78.70
53286;DHT22;39171;45.550;12.074;2023-05-16T10:45:54;18.10;78.70
53286;DHT22;39171;45.550;12.074;2023-05-16T10:52:08;18.10;78.50
53286;DHT22;39171;45.550;12.074;2023-05-16T10:58:10;18.10;78.70
53286;DHT22;39171;45.550;12.074;2023-05-16T11:04:12;18.10;78.40
53286;DHT22;39171;45.550;12.074;2023-05-16T11:10:16;18.10;78.60
53286;DHT22;39171;45.550;12.074;2023-05-16T11:16:27;18.20;78.60
53286;DHT22;39171;45.550;12.074;2023-05-16T11:22:29;18.10;78.60
53286;DHT22;39171;45.550;12.074;2023-05-16T11:28:31;18.10;78.70
53286;DHT22;39171;45.550;12.074;2023-05-16T11:34:35;18.10;78.50
53286;DHT22;39171;45.550;12.074;2023-05-16T11:40:42;18.20;78.30
53286;DHT22;39171;45.550;12.074;2023-05-16T11:46:44;18.10;78.30
53286;DHT22;39171;45.550;12.074;2023-05-16T11:52:51;18.20;78.60
53286;DHT22;39171;45.550;12.074;2023-05-16T11:58:53;18.20;78.30
53286;DHT22;39171;45.550;12.074;2023-05-16T12:04:55;18.20;78.20
53286;DHT22;39171;45.550;12.074;2023-05-16T12:10:57;18.20;78.10
53286;DHT22;39171;45.550;12.074;2023-05-16T12:16:58;18.20;78.00
53286;DHT22;39171;45.550;12.074;2023-05-16T12:23:00;18.20;78.20
53286;DHT22;39171;45.550;12.074;2023-05-16T12:29:02;18.20;77.90
53286;DHT22;39171;45.550;12.074;2023-05-16T12:35:05;18.20;78.10
53286;DHT22;39171;45.550;12.074;2023-05-16T12:41:07;18.20;78.20
53286;DHT22;39171;45.550;12.074;2023-05-16T12:47:10;18.20;78.40
53286;DHT22;39171;45.550;12.074;2023-05-16T12:53:13;18.20;78.40
53286;DHT22;39171;45.550;12.074;2023-05-16T12:59:15;18.20;78.10
53286;DHT22;39171;45.550;12.074;2023-05-16T13:05:16;18.20;78.10
53286;DHT22;39171;45.550;12.074;2023-05-16T13:11:18;18.20;77.80
53286;DHT22;39171;45.550;12.074;2023-05-16T13:17:19;18.20;77.50
53286;DHT22;39171;45.550;12.074;2023-05-16T13:23:20;18.20;77.40
53286;DHT22;39171;45.550;12.074;2023-05-16T13:29:22;18.30;76.90
53286;DHT22;39171;45.550;12.074;2023-05-16T13:35:23;18.30;76.80
53286;DHT22;39171;45.550;12.074;2023-05-16T13:41:25;18.30;76.70
53286;DHT22;39171;45.550;12.074;2023-05-16T13:47:26;18.30;76.70
53286;DHT22;39171;45.550;12.074;2023-05-16T13:53:27;18.30;77.00
53286;DHT22;39171;45.550;12.074;2023-05-16T13:59:29;18.20;76.50
53286;DHT22;39171;45.550;12.074;2023-05-16T14:05:33;18.30;76.80
53286;DHT22;39171;45.550;12.074;2023-05-16T14:11:38;18.20;77.20
53286;DHT22;39171;45.550;12.074;2023-05-16T14:17:39;18.20;77.40
53286;DHT22;39171;45.550;12.074;2023-05-16T14:23:40;18.20;77.40
53286;DHT22;39171;45.550;12.074;2023-05-16T14:29:42;18.20;77.70
53286;DHT22;39171;45.550;12.074;2023-05-16T14:35:43;18.20;77.50
53286;DHT22;39171;45.550;12.074;2023-05-16T14:41:48;18.20;77.50
53286;DHT22;39171;45.550;12.074;2023-05-16T14:47:49;18.20;77.70
53286;DHT22;39171;45.550;12.074;2023-05-16T14:53:50;18.20;77.90
53286;DHT22;39171;45.550;12.074;2023-05-16T14:59:54;18.20;78.20
53286;DHT22;39171;45.550;12.074;2023-05-16T15:05:55;18.20;78.30
53286;DHT22;39171;45.550;12.074;2023-05-16T15:11:57;18.20;78.00
53286;DHT22;39171;45.550;12.074;2023-05-16T15:17:58;18.10;78.00
53286;DHT22;39171;45.550;12.074;2023-05-16T15:24:02;18.20;78.60
53286;DHT22;39171;45.550;12.074;2023-05-16T15:30:04;18.20;78.20
53286;DHT22;39171;45.550;12.074;2023-05-16T15:36:06;18.20;78.40
53286;DHT22;39171;45.550;12.074;2023-05-16T15:42:07;18.10;78.50
53286;DHT22;39171;45.550;12.074;2023-05-16T15:48:09;18.10;78.50
53286;DHT22;39171;45.550;12.074;2023-05-16T15:54:10;18.20;78.70
53286;DHT22;39171;45.550;12.074;2023-05-16T16:00:12;18.10;78.80
53286;DHT22;39171;45.550;12.074;2023-05-16T16:06:15;18.10;78.90
53286;DHT22;39171;45.550;12.074;2023-05-16T16:12:16;18.10;78.90
53286;DHT22;39171;45.550;12.074;2023-05-16T16:18:18;18.10;78.90
53286;DHT22;39171;45.550;12.074;2023-05-16T16:24:19;18.10;79.30
53286;DHT22;39171;45.550;12.074;2023-05-16T16:30:20;18.10;79.10
53286;DHT22;39171;45.550;12.074;2023-05-16T16:36:25;18.00;79.20
53286;DHT22;39171;45.550;12.074;2023-05-16T16:42:26;18.10;79.30
53286;DHT22;39171;45.550;12.074;2023-05-16T16:48:30;18.10;79.50
53286;DHT22;39171;45.550;12.074;2023-05-16T16:54:34;18.10;79.50
53286;DHT22;39171;45.550;12.074;2023-05-16T17:00:35;18.10;79.50
53286;DHT22;39171;45.550;12.074;2023-05-16T17:06:37;18.10;79.50
53286;DHT22;39171;45.550;12.074;2023-05-16T17:12:38;18.10;79.50
53286;DHT22;39171;45.550;12.074;2023-05-16T17:18:48;18.10;79.50
53286;DHT22;39171;45.550;12.074;2023-05-16T17:24:50;18.10;79.50
53286;DHT22;39171;45.550;12.074;2023-05-16T17:30:51;18.00;79.40
53286;DHT22;39171;45.550;12.074;2023-05-16T17:36:53;18.00;79.40
53286;DHT22;39171;45.550;12.074;2023-05-16T17:42:54;18.10;79.40
53286;DHT22;39171;45.550;12.074;2023-05-16T17:48:56;18.10;79.30
53286;DHT22;39171;45.550;12.074;2023-05-16T17:54:57;18.00;79.50
53286;DHT22;39171;45.550;12.074;2023-05-16T18:01:03;18.10;79.40
53286;DHT22;39171;45.550;12.074;2023-05-16T18:07:08;18.10;79.50
53286;DHT22;39171;45.550;12.074;2023-05-16T18:13:09;18.10;79.50
53286;DHT22;39171;45.550;12.074;2023-05-16T18:19:13;18.00;79.60
53286;DHT22;39171;45.550;12.074;2023-05-16T18:25:15;18.00;79.60
53286;DHT22;39171;45.550;12.074;2023-05-16T18:31:16;18.00;79.60
53286;DHT22;39171;45.550;12.074;2023-05-16T18:37:18;18.00;79.50
53286;DHT22;39171;45.550;12.074;2023-05-16T18:43:19;18.00;79.60
53286;DHT22;39171;45.550;12.074;2023-05-16T18:49:20;18.00;79.60
53286;DHT22;39171;45.550;12.074;2023-05-16T18:55:22;18.00;79.70
53286;DHT22;39171;45.550;12.074;2023-05-16T19:01:24;18.00;79.80
53286;DHT22;39171;45.550;12.074;2023-05-16T19:07:25;18.00;80.10
53286;DHT22;39171;45.550;12.074;2023-05-16T19:13:27;18.00;80.20
53286;DHT22;39171;45.550;12.074;2023-05-16T19:19:31;18.00;80.30
53286;DHT22;39171;45.550;12.074;2023-05-16T19:25:32;18.00;81.00
53286;DHT22;39171;45.550;12.074;2023-05-16T19:31:34;18.00;80.90
53286;DHT22;39171;45.550;12.074;2023-05-16T19:37:35;18.00;80.90
53286;DHT22;39171;45.550;12.074;2023-05-16T19:43:50;18.00;81.30
53286;DHT22;39171;45.550;12.074;2023-05-16T19:49:51;18.00;81.20
53286;DHT22;39171;45.550;12.074;2023-05-16T19:55:53;18.00;80.90
53286;DHT22;39171;45.550;12.074;2023-05-16T20:01:54;18.00;80.80
53286;DHT22;39171;45.550;12.074;2023-05-16T20:07:58;18.00;80.80
53286;DHT22;39171;45.550;12.074;2023-05-16T20:14:00;18.00;80.70
53286;DHT22;39171;45.550;12.074;2023-05-16T20:20:02;18.00;80.60
53286;DHT22;39171;45.550;12.074;2023-05-16T20:26:04;18.00;80.60
53286;DHT22;39171;45.550;12.074;2023-05-16T20:32:05;18.00;80.50
53286;DHT22;39171;45.550;12.074;2023-05-16T20:38:07;18.00;80.50
53286;DHT22;39171;45.550;12.074;2023-05-16T20:44:08;18.00;80.50
53286;DHT22;39171;45.550;12.074;2023-05-16T20:50:10;18.00;80.70
53286;DHT22;39171;45.550;12.074;2023-05-16T20:56:11;18.00;80.60
53286;DHT22;39171;45.550;12.074;2023-05-16T21:02:12;18.00;80.80
53286;DHT22;39171;45.550;12.074;2023-05-16T21:08:14;18.00;80.80
53286;DHT22;39171;45.550;12.074;2023-05-16T21:14:15;18.00;80.90
53286;DHT22;39171;45.550;12.074;2023-05-16T21:20:17;18.00;80.90
53286;DHT22;39171;45.550;12.074;2023-05-16T21:26:18;18.00;80.90
53286;DHT22;39171;45.550;12.074;2023-05-16T21:32:20;18.00;80.80
53286;DHT22;39171;45.550;12.074;2023-05-16T21:38:21;18.00;80.80
53286;DHT22;39171;45.550;12.074;2023-05-16T21:44:22;18.00;80.80
53286;DHT22;39171;45.550;12.074;2023-05-16T21:50:24;18.00;80.70
53286;DHT22;39171;45.550;12.074;2023-05-16T21:56:25;18.00;80.70
53286;DHT22;39171;45.550;12.074;2023-05-16T22:02:29;17.90;80.60
53286;DHT22;39171;45.550;12.074;2023-05-16T22:08:30;18.00;80.60
53286;DHT22;39171;45.550;12.074;2023-05-16T22:14:35;17.90;80.60
53286;DHT22;39171;45.550;12.074;2023-05-16T22:20:36;18.00;80.50
53286;DHT22;39171;45.550;12.074;2023-05-16T22:26:37;17.90;80.50
53286;DHT22;39171;45.550;12.074;2023-05-16T22:32:39;18.00;80.50
53286;DHT22;39171;45.550;12.074;2023-05-16T22:38:40;17.90;80.50
53286;DHT22;39171;45.550;12.074;2023-05-16T22:44:41;17.90;80.50
53286;DHT22;39171;45.550;12.074;2023-05-16T22:50:43;17.90;80.50
53286;DHT22;39171;45.550;12.074;2023-05-16T22:56:44;17.90;80.40
53286;DHT22;39171;45.550;12.074;2023-05-16T23:02:45;17.90;80.40
53286;DHT22;39171;45.550;12.074;2023-05-16T23:08:47;17.90;80.40
53286;DHT22;39171;45.550;12.074;2023-05-16T23:14:48;17.90;80.40
53286;DHT22;39171;45.550;12.074;2023-05-16T23:20:50;17.90;80.50
53286;DHT22;39171;45.550;12.074;2023-05-16T23:26:51;18.00;80.50
53286;DHT22;39171;45.550;12.074;2023-05-16T23:32:52;17.90;80.50
53286;DHT22;39171;45.550;12.074;2023-05-16T23:38:54;17.90;80.50
53286;DHT22;39171;45.550;12.074;2023-05-16T23:44:55;17.90;80.50
53286;DHT22;39171;45.550;12.074;2023-05-16T23:50:57;17.90;80.60
53286;DHT22;39171;45.550;12.074;2023-05-16T23:56:58;17.90;80.80
